Londonderry, United Kingdom
Current Conditions -  °F | °C
As of 2:50 PM on Monday 22 Dec 2014 (Local Time) from EGAE Reporting Station
Light Rain Light Rain  
Wind Chill: 10°   Ceiling: 1200
Heat Index: 10°   Visibility: 6mi
Dew Point:   Wind: 15mph
Humidity: 87%   Direction: 250°WSW
Pressure: 29.68"   Gusts: NA
Location:  54.99°N, 7.31°W
Report Text: EGAE 221450Z 25013KT 9000 -RADZ FEW005 OVC012 10/08 Q1005
Loading
Personal Weather Stations






























Interactive Weather Map New forecast layout! Learn more

10-Day Weather Forecast

Advertisements
Track Severe Weather on mobile